createdAt,value
2023-05-14T00:02:09.993Z,43.24
2023-05-14T00:07:40.329Z,43.32
2023-05-14T00:13:29.502Z,43.39
2023-05-14T00:19:16.625Z,43.50
2023-05-14T00:24:25.633Z,43.53
2023-05-14T00:30:14.179Z,43.64
2023-05-14T00:35:59.113Z,43.77
2023-05-14T00:41:55.316Z,43.78
2023-05-14T00:47:54.969Z,43.92
2023-05-14T00:54:22.927Z,44.02
2023-05-14T00:59:42.830Z,44.05
2023-05-14T01:04:54.036Z,44.16
2023-05-14T01:10:22.853Z,44.26
2023-05-14T01:21:41.021Z,44.40
2023-05-14T01:26:51.501Z,44.43
2023-05-14T01:32:45.118Z,44.44
2023-05-14T01:38:42.544Z,44.53
2023-05-14T01:44:40.305Z,44.52
2023-05-14T01:49:47.478Z,44.48
2023-05-14T01:55:35.117Z,44.62
2023-05-14T02:07:02.698Z,44.57
2023-05-14T02:12:50.182Z,44.67
2023-05-14T02:18:20.022Z,44.75
2023-05-14T02:24:08.482Z,44.76
2023-05-14T02:29:50.855Z,44.79
2023-05-14T02:35:36.188Z,44.82
2023-05-14T02:41:24.881Z,44.88
2023-05-14T02:47:46.536Z,44.92
2023-05-14T02:53:46.655Z,44.95
2023-05-14T02:59:30.006Z,45.02
2023-05-14T03:06:08.088Z,45.08
2023-05-14T03:12:06.573Z,45.20
2023-05-14T03:17:57.281Z,45.28
2023-05-14T03:30:35.035Z,45.45
2023-05-14T03:42:51.642Z,45.48
2023-05-14T03:48:45.930Z,45.59
2023-05-14T04:05:09.155Z,45.82
2023-05-14T04:10:53.444Z,45.94
2023-05-14T04:16:03.751Z,46.10
2023-05-14T04:21:12.619Z,46.28
2023-05-14T04:26:22.998Z,46.43
2023-05-14T04:31:29.479Z,46.50
2023-05-14T04:36:36.950Z,46.56
2023-05-14T04:41:52.600Z,46.72
2023-05-14T04:47:10.730Z,46.90
2023-05-14T04:52:40.484Z,46.94
2023-05-14T04:58:25.225Z,47.02
2023-05-14T05:03:37.797Z,47.10
2023-05-14T05:08:51.560Z,47.36
2023-05-14T05:14:02.699Z,47.39
2023-05-14T05:19:50.566Z,47.36
2023-05-14T05:25:28.322Z,47.36
2023-05-14T05:30:42.774Z,47.53
2023-05-14T05:37:52.274Z,47.52
2023-05-14T05:41:19.292Z,47.55
2023-05-14T05:47:06.848Z,47.68
2023-05-14T05:53:21.719Z,47.56
2023-05-14T05:58:24.154Z,47.39
2023-05-14T06:03:55.160Z,47.00
2023-05-14T06:09:29.317Z,47.08
2023-05-14T06:15:18.025Z,47.02
2023-05-14T06:19:57.059Z,47.39
2023-05-14T06:25:26.693Z,47.37
2023-05-14T06:30:51.711Z,47.52
2023-05-14T06:36:51.052Z,47.41
2023-05-14T06:41:49.668Z,47.53
2023-05-14T06:47:36.959Z,47.48
2023-05-14T06:52:51.847Z,47.36
2023-05-14T06:58:49.494Z,47.32
2023-05-14T07:03:51.903Z,47.17
2023-05-14T07:08:59.508Z,47.17
2023-05-14T07:14:19.504Z,47.18
2023-05-14T07:19:28.685Z,49.92
2023-05-14T07:24:35.832Z,50.13
2023-05-14T07:29:43.100Z,48.44
2023-05-14T07:34:50.622Z,47.96
2023-05-14T07:39:57.851Z,47.13
2023-05-14T07:45:05.045Z,46.88
2023-05-14T07:50:12.264Z,46.57
2023-05-14T07:55:19.550Z,46.53
2023-05-14T08:00:26.962Z,46.43
2023-05-14T08:05:34.055Z,46.62
2023-05-14T08:10:42.137Z,46.17
2023-05-14T08:15:49.504Z,46.01
2023-05-14T08:20:57.146Z,45.86
2023-05-14T08:26:04.538Z,46.16
2023-05-14T08:31:12.031Z,45.87
2023-05-14T08:36:19.440Z,45.94
2023-05-14T08:41:26.736Z,45.88
2023-05-14T08:46:33.938Z,45.83
2023-05-14T08:51:41.338Z,45.84
2023-05-14T08:56:52.014Z,45.86
2023-05-14T09:01:56.645Z,46.01
2023-05-14T09:07:09.941Z,45.82
2023-05-14T09:12:19.956Z,45.48
2023-05-14T09:17:27.511Z,45.10
2023-05-14T09:22:34.807Z,44.88
2023-05-14T09:27:41.999Z,44.85
2023-05-14T09:32:49.318Z,44.80
2023-05-14T09:37:56.704Z,44.52
2023-05-14T09:43:03.971Z,44.72
2023-05-14T09:48:11.340Z,44.80
2023-05-14T09:53:18.526Z,44.68
2023-05-14T09:58:25.706Z,44.57
2023-05-14T10:03:33.108Z,44.53
2023-05-14T10:08:40.448Z,44.49
2023-05-14T10:13:47.710Z,44.32
2023-05-14T10:18:57.137Z,44.24
2023-05-14T10:24:02.248Z,44.17
2023-05-14T10:29:09.471Z,44.06
2023-05-14T10:34:17.065Z,43.92
2023-05-14T10:39:28.809Z,43.90
2023-05-14T10:44:36.244Z,43.85
2023-05-14T10:49:47.156Z,43.85
2023-05-14T10:54:52.718Z,43.85
2023-05-14T11:00:06.139Z,43.85
2023-05-14T11:05:13.440Z,43.86
2023-05-14T11:10:25.157Z,43.82
2023-05-14T11:15:32.360Z,43.80
2023-05-14T11:20:39.940Z,43.79
2023-05-14T11:25:47.549Z,43.79
2023-05-14T11:30:54.958Z,43.70
2023-05-14T11:36:02.466Z,43.63
2023-05-14T11:41:09.896Z,43.69
2023-05-14T11:46:17.300Z,43.90
2023-05-14T11:51:27.939Z,43.90
2023-05-14T11:56:35.130Z,43.98
2023-05-14T12:01:45.211Z,44.05
2023-05-14T12:06:51.077Z,43.96
2023-05-14T12:11:58.607Z,44.05
2023-05-14T12:17:05.946Z,44.05
2023-05-14T12:22:13.210Z,44.04
2023-05-14T12:27:20.718Z,44.06
2023-05-14T12:32:32.277Z,44.02
2023-05-14T12:37:56.269Z,44.06
2023-05-14T12:43:03.992Z,44.15
2023-05-14T12:48:11.337Z,44.17
2023-05-14T12:53:18.644Z,44.08
2023-05-14T12:58:29.108Z,44.03
2023-05-14T13:03:40.098Z,44.01
2023-05-14T13:08:50.823Z,44.03
2023-05-14T13:13:58.196Z,43.93
2023-05-14T13:19:05.547Z,43.97
2023-05-14T13:24:12.954Z,44.05
2023-05-14T13:29:23.103Z,44.08
2023-05-14T13:34:29.635Z,44.05
2023-05-14T13:39:37.011Z,44.12
2023-05-14T13:44:44.383Z,44.10
2023-05-14T13:49:51.653Z,44.13
2023-05-14T13:54:59.020Z,44.09
2023-05-14T14:00:06.590Z,44.08
2023-05-14T14:05:14.061Z,44.02
2023-05-14T14:10:21.227Z,44.04
2023-05-14T14:15:28.774Z,44.00
2023-05-14T14:20:39.097Z,44.01
2023-05-14T14:25:44.616Z,44.00
2023-05-14T14:30:53.301Z,44.06
2023-05-14T14:36:06.818Z,44.04
2023-05-14T14:41:14.215Z,44.30
2023-05-14T14:46:24.317Z,44.46
2023-05-14T14:51:31.825Z,44.46
2023-05-14T14:56:39.449Z,44.43
2023-05-14T15:01:51.717Z,44.56
2023-05-14T15:06:59.308Z,44.46
2023-05-14T15:12:15.236Z,44.52
2023-05-14T15:17:23.251Z,44.56
2023-05-14T15:22:37.238Z,44.57
2023-05-14T15:27:51.151Z,44.41
2023-05-14T15:33:03.056Z,44.63
2023-05-14T15:38:14.273Z,44.62
2023-05-14T15:43:34.047Z,44.91
2023-05-14T15:48:45.433Z,45.61
2023-05-14T15:54:02.189Z,46.09
2023-05-14T15:59:13.289Z,46.11
2023-05-14T16:04:25.133Z,46.08
2023-05-14T16:09:41.634Z,46.01
2023-05-14T16:16:08.102Z,46.12
2023-05-14T16:20:17.351Z,46.34
2023-05-14T16:25:29.726Z,46.41
2023-05-14T16:30:47.299Z,46.42
2023-05-14T16:36:30.450Z,46.11
2023-05-14T16:41:40.348Z,46.40
2023-05-14T16:46:54.091Z,46.44
2023-05-14T16:52:17.201Z,46.54
2023-05-14T16:57:33.058Z,46.45
2023-05-14T17:02:46.112Z,46.24
2023-05-14T17:08:03.263Z,46.27
2023-05-14T17:13:10.128Z,46.29
2023-05-14T17:19:17.176Z,46.46
2023-05-14T17:24:20.495Z,45.96
2023-05-14T17:29:35.358Z,45.96
2023-05-14T17:34:56.997Z,45.75
2023-05-14T17:40:24.789Z,46.01
2023-05-14T17:45:18.611Z,45.88
2023-05-14T17:50:35.366Z,46.26
2023-05-14T17:55:47.226Z,46.68
2023-05-14T18:00:58.616Z,47.02
2023-05-14T18:06:35.517Z,46.88
2023-05-14T18:11:33.362Z,46.75
2023-05-14T18:16:45.110Z,45.94
2023-05-14T18:22:31.408Z,45.51
2023-05-14T18:27:40.321Z,45.66
2023-05-14T18:32:57.136Z,45.18
2023-05-14T18:38:07.039Z,44.85
2023-05-14T18:43:15.894Z,44.53
2023-05-14T18:48:35.989Z,44.37
2023-05-14T18:53:37.193Z,44.26
2023-05-14T18:58:45.055Z,44.18
2023-05-14T19:03:56.346Z,44.02
2023-05-14T19:09:06.141Z,44.01
2023-05-14T19:14:19.986Z,43.84
2023-05-14T19:19:32.842Z,43.75
2023-05-14T19:24:40.817Z,43.72
2023-05-14T19:29:51.964Z,43.69
2023-05-14T19:34:59.935Z,43.46
2023-05-14T19:40:07.992Z,43.47
2023-05-14T19:45:20.214Z,43.37
2023-05-14T19:50:30.673Z,43.31
2023-05-14T19:55:41.945Z,43.29
2023-05-14T20:00:54.125Z,43.15
2023-05-14T20:06:06.087Z,42.92
2023-05-14T20:11:27.218Z,42.80
2023-05-14T20:17:25.429Z,42.76
2023-05-14T20:22:41.107Z,42.78
2023-05-14T20:28:52.315Z,42.69
2023-05-14T20:33:37.516Z,42.64
2023-05-14T20:39:15.453Z,42.60
2023-05-14T20:44:11.363Z,42.77
2023-05-14T20:50:00.345Z,42.69
2023-05-14T20:56:50.037Z,42.85
2023-05-14T21:02:41.286Z,42.79
2023-05-14T21:08:06.932Z,42.69
2023-05-14T21:13:44.719Z,42.60
2023-05-14T21:19:17.452Z,42.56
2023-05-14T21:24:16.477Z,42.64
2023-05-14T21:29:38.289Z,42.63
2023-05-14T21:35:03.730Z,42.70
2023-05-14T21:40:20.190Z,42.70
2023-05-14T21:45:33.918Z,42.63
2023-05-14T21:50:41.495Z,42.69
2023-05-14T21:55:55.283Z,42.56
2023-05-14T22:01:02.846Z,42.59
2023-05-14T22:06:25.135Z,42.56
2023-05-14T22:11:32.552Z,42.60
2023-05-14T22:16:39.979Z,42.52
2023-05-14T22:21:47.711Z,42.67
2023-05-14T22:26:55.299Z,42.61
2023-05-14T22:32:24.265Z,42.62
2023-05-14T22:37:19.364Z,42.63
2023-05-14T22:42:32.007Z,42.73
2023-05-14T22:47:39.701Z,42.56
2023-05-14T22:53:08.626Z,42.37
2023-05-14T22:58:00.487Z,42.26
2023-05-14T23:03:48.079Z,42.18
2023-05-14T23:10:15.634Z,42.11
2023-05-14T23:24:04.504Z,42.06
2023-05-14T23:40:10.114Z,42.18
2023-05-14T23:44:29.917Z,42.31
2023-05-14T23:57:07.672Z,42.40
